sensor_id;sensor_type;location;lat;lon;timestamp;pressure;altitude;pressure_sealevel;temperature;humidity
9525;BME280;15940;48.734;9.112;2023-04-29T00:01:39;96276.16;;;11.48;99.14
9525;BME280;15940;48.734;9.112;2023-04-29T00:04:06;96270.75;;;11.48;99.24
9525;BME280;15940;48.734;9.112;2023-04-29T00:06:33;96272.94;;;11.50;99.59
9525;BME280;15940;48.734;9.112;2023-04-29T00:09:00;96283.75;;;11.55;99.39
9525;BME280;15940;48.734;9.112;2023-04-29T00:11:29;96280.81;;;11.59;99.04
9525;BME280;15940;48.734;9.112;2023-04-29T00:13:56;96277.59;;;11.55;98.82
9525;BME280;15940;48.734;9.112;2023-04-29T00:16:22;96274.66;;;11.53;98.80
9525;BME280;15940;48.734;9.112;2023-04-29T00:18:51;96273.44;;;11.48;98.85
9525;BME280;15940;48.734;9.112;2023-04-29T00:21:18;96272.44;;;11.45;98.86
9525;BME280;15940;48.734;9.112;2023-04-29T00:23:45;96270.97;;;11.44;98.76
9525;BME280;15940;48.734;9.112;2023-04-29T00:26:12;96270.97;;;11.44;99.13
9525;BME280;15940;48.734;9.112;2023-04-29T00:28:39;96262.84;;;11.44;99.09
9525;BME280;15940;48.734;9.112;2023-04-29T00:33:32;96269.75;;;11.45;99.16
9525;BME280;15940;48.734;9.112;2023-04-29T00:35:59;96270.22;;;11.50;99.11
9525;BME280;15940;48.734;9.112;2023-04-29T00:38:26;96276.41;;;11.50;98.86
9525;BME280;15940;48.734;9.112;2023-04-29T00:40:54;96275.66;;;11.50;98.88
9525;BME280;15940;48.734;9.112;2023-04-29T00:43:21;96274.19;;;11.49;98.81
9525;BME280;15940;48.734;9.112;2023-04-29T00:45:49;96273.91;;;11.52;98.76
9525;BME280;15940;48.734;9.112;2023-04-29T00:48:16;96279.56;;;11.54;98.81
9525;BME280;15940;48.734;9.112;2023-04-29T00:50:44;96273.91;;;11.52;98.56
9525;BME280;15940;48.734;9.112;2023-04-29T00:53:11;96275.16;;;11.45;98.50
9525;BME280;15940;48.734;9.112;2023-04-29T00:55:39;96274.69;;;11.41;98.28
9525;BME280;15940;48.734;9.112;2023-04-29T00:58:07;96280.38;;;11.38;98.40
9525;BME280;15940;48.734;9.112;2023-04-29T01:00:34;96278.66;;;11.35;98.51
9525;BME280;15940;48.734;9.112;2023-04-29T01:03:01;96273.25;;;11.29;98.55
9525;BME280;15940;48.734;9.112;2023-04-29T01:05:28;96259.22;;;11.25;98.32
9525;BME280;15940;48.734;9.112;2023-04-29T01:08:18;96261.97;;;11.20;98.50
9525;BME280;15940;48.734;9.112;2023-04-29T01:10:54;96256.78;;;11.16;98.42
9525;BME280;15940;48.734;9.112;2023-04-29T01:13:29;96253.59;;;11.12;98.44
9525;BME280;15940;48.734;9.112;2023-04-29T01:16:01;96262.97;;;11.11;98.68
9525;BME280;15940;48.734;9.112;2023-04-29T01:18:34;96251.13;;;11.08;98.82
9525;BME280;15940;48.734;9.112;2023-04-29T01:21:02;96259.75;;;11.07;98.95
9525;BME280;15940;48.734;9.112;2023-04-29T01:23:30;96257.78;;;11.13;99.14
9525;BME280;15940;48.734;9.112;2023-04-29T01:25:58;96255.06;;;11.13;99.19
9525;BME280;15940;48.734;9.112;2023-04-29T01:28:42;96256.06;;;11.10;98.89
9525;BME280;15940;48.734;9.112;2023-04-29T01:31:18;96253.84;;;11.08;99.04
9525;BME280;15940;48.734;9.112;2023-04-29T01:33:52;96253.84;;;11.08;99.11
9525;BME280;15940;48.734;9.112;2023-04-29T01:36:33;96252.84;;;11.06;99.02
9525;BME280;15940;48.734;9.112;2023-04-29T01:39:13;96256.06;;;11.10;99.15
9525;BME280;15940;48.734;9.112;2023-04-29T01:41:44;96251.13;;;11.08;99.33
9525;BME280;15940;48.734;9.112;2023-04-29T01:44:14;96254.09;;;11.05;98.85
9525;BME280;15940;48.734;9.112;2023-04-29T01:46:47;96250.91;;;11.01;98.79
9525;BME280;15940;48.734;9.112;2023-04-29T01:49:15;96247.19;;;10.98;98.81
9525;BME280;15940;48.734;9.112;2023-04-29T01:51:45;96241.31;;;10.94;98.83
9525;BME280;15940;48.734;9.112;2023-04-29T01:54:13;96246.00;;;10.94;98.97
9525;BME280;15940;48.734;9.112;2023-04-29T01:56:40;96245.50;;;10.90;98.88
9525;BME280;15940;48.734;9.112;2023-04-29T01:59:08;96239.09;;;10.87;99.03
9525;BME280;15940;48.734;9.112;2023-04-29T02:01:35;96243.56;;;10.84;98.95
9525;BME280;15940;48.734;9.112;2023-04-29T02:04:03;96244.78;;;10.78;98.67
9525;BME280;15940;48.734;9.112;2023-04-29T02:06:30;96238.88;;;10.74;98.63
9525;BME280;15940;48.734;9.112;2023-04-29T02:08:58;96238.16;;;10.68;98.77
9525;BME280;15940;48.734;9.112;2023-04-29T02:11:26;96238.41;;;10.64;98.79
9525;BME280;15940;48.734;9.112;2023-04-29T02:13:53;96238.16;;;10.62;98.77
9525;BME280;15940;48.734;9.112;2023-04-29T02:16:21;96240.59;;;10.60;98.82
9525;BME280;15940;48.734;9.112;2023-04-29T02:18:48;96241.84;;;10.59;99.06
9525;BME280;15940;48.734;9.112;2023-04-29T02:21:15;96246.03;;;10.60;99.01
9525;BME280;15940;48.734;9.112;2023-04-29T02:23:42;96246.28;;;10.62;99.03
9525;BME280;15940;48.734;9.112;2023-04-29T02:26:09;96250.22;;;10.61;99.38
9525;BME280;15940;48.734;9.112;2023-04-29T02:28:37;96250.22;;;10.61;99.12
9525;BME280;15940;48.734;9.112;2023-04-29T02:31:04;96250.72;;;10.59;99.11
9525;BME280;15940;48.734;9.112;2023-04-29T02:33:32;96250.00;;;10.53;98.90
9525;BME280;15940;48.734;9.112;2023-04-29T02:35:59;96246.78;;;10.49;98.79
9525;BME280;15940;48.734;9.112;2023-04-29T02:38:25;96251.72;;;10.45;98.70
9525;BME280;15940;48.734;9.112;2023-04-29T02:40:52;96248.75;;;10.43;98.96
9525;BME280;15940;48.734;9.112;2023-04-29T02:43:19;96250.25;;;10.44;99.13
9525;BME280;15940;48.734;9.112;2023-04-29T02:45:47;96249.00;;;10.40;99.08
9525;BME280;15940;48.734;9.112;2023-04-29T02:48:14;96254.41;;;10.45;99.59
9525;BME280;15940;48.734;9.112;2023-04-29T02:50:41;96251.44;;;10.49;99.59
9525;BME280;15940;48.734;9.112;2023-04-29T02:53:08;96247.00;;;10.51;99.77
9525;BME280;15940;48.734;9.112;2023-04-29T02:55:35;96241.59;;;10.51;99.85
9525;BME280;15940;48.734;9.112;2023-04-29T02:58:02;96247.50;;;10.50;99.86
9525;BME280;15940;48.734;9.112;2023-04-29T03:00:29;96241.88;;;10.53;100.00
9525;BME280;15940;48.734;9.112;2023-04-29T03:02:57;96247.03;;;10.57;100.00
9525;BME280;15940;48.734;9.112;2023-04-29T03:05:24;96256.38;;;10.56;100.00
9525;BME280;15940;48.734;9.112;2023-04-29T03:07:51;96253.44;;;10.54;99.94
9525;BME280;15940;48.734;9.112;2023-04-29T03:10:18;96249.50;;;10.55;100.00
9525;BME280;15940;48.734;9.112;2023-04-29T03:12:45;96248.97;;;10.51;99.80
9525;BME280;15940;48.734;9.112;2023-04-29T03:15:12;96254.91;;;10.49;100.00
9525;BME280;15940;48.734;9.112;2023-04-29T03:17:40;96248.75;;;10.49;99.92
9525;BME280;15940;48.734;9.112;2023-04-29T03:20:09;96255.88;;;10.46;99.91
9525;BME280;15940;48.734;9.112;2023-04-29T03:24:55;96248.75;;;10.43;99.62
9525;BME280;15940;48.734;9.112;2023-04-29T03:27:22;96250.47;;;10.41;99.73
9525;BME280;15940;48.734;9.112;2023-04-29T03:29:49;96240.63;;;10.38;99.89
9525;BME280;15940;48.734;9.112;2023-04-29T03:32:16;96239.91;;;10.37;99.86
9525;BME280;15940;48.734;9.112;2023-04-29T03:34:43;96246.31;;;10.34;99.76
9525;BME280;15940;48.734;9.112;2023-04-29T03:37:10;96240.63;;;10.32;99.70
9525;BME280;15940;48.734;9.112;2023-04-29T03:39:37;96234.97;;;10.30;100.00
9525;BME280;15940;48.734;9.112;2023-04-29T03:42:05;96228.56;;;10.27;99.98
9525;BME280;15940;48.734;9.112;2023-04-29T03:44:32;96230.78;;;10.23;99.79
9525;BME280;15940;48.734;9.112;2023-04-29T03:46:59;96230.50;;;10.21;100.00
9525;BME280;15940;48.734;9.112;2023-04-29T03:49:26;96223.88;;;10.17;99.87
9525;BME280;15940;48.734;9.112;2023-04-29T03:51:53;96220.66;;;10.13;99.81
9525;BME280;15940;48.734;9.112;2023-04-29T03:54:20;96224.84;;;10.08;99.55
9525;BME280;15940;48.734;9.112;2023-04-29T03:56:47;96228.53;;;10.05;99.98
9525;BME280;15940;48.734;9.112;2023-04-29T03:59:15;96230.75;;;10.07;100.00
9525;BME280;15940;48.734;9.112;2023-04-29T04:01:42;96227.31;;;10.06;100.00
9525;BME280;15940;48.734;9.112;2023-04-29T04:04:09;96225.56;;;10.03;99.94
9525;BME280;15940;48.734;9.112;2023-04-29T04:06:36;96227.28;;;10.00;99.97
9525;BME280;15940;48.734;9.112;2023-04-29T04:09:03;96234.19;;;9.96;99.82
9525;BME280;15940;48.734;9.112;2023-04-29T04:11:30;96230.47;;;9.93;100.00
9525;BME280;15940;48.734;9.112;2023-04-29T04:13:57;96242.78;;;9.89;99.61
9525;BME280;15940;48.734;9.112;2023-04-29T04:16:26;96239.06;;;9.86;99.60
9525;BME280;15940;48.734;9.112;2023-04-29T04:18:52;96235.63;;;9.86;100.00
9525;BME280;15940;48.734;9.112;2023-04-29T04:21:19;96249.16;;;9.86;100.00
9525;BME280;15940;48.734;9.112;2023-04-29T04:23:46;96251.09;;;9.85;99.97
9525;BME280;15940;48.734;9.112;2023-04-29T04:26:13;96255.53;;;9.83;100.00
9525;BME280;15940;48.734;9.112;2023-04-29T04:28:40;96259.22;;;9.80;99.55
9525;BME280;15940;48.734;9.112;2023-04-29T04:31:07;96262.41;;;9.78;99.54
9525;BME280;15940;48.734;9.112;2023-04-29T04:33:35;96261.69;;;9.78;99.60
9525;BME280;15940;48.734;9.112;2023-04-29T04:36:03;96270.78;;;9.80;99.59
9525;BME280;15940;48.734;9.112;2023-04-29T04:38:30;96276.69;;;9.79;99.22
9525;BME280;15940;48.734;9.112;2023-04-29T04:40:57;96274.72;;;9.79;99.42
9525;BME280;15940;48.734;9.112;2023-04-29T04:43:24;96276.94;;;9.81;99.55
9525;BME280;15940;48.734;9.112;2023-04-29T04:45:51;96276.94;;;9.81;99.55
9525;BME280;15940;48.734;9.112;2023-04-29T04:48:19;96291.44;;;9.83;99.47
9525;BME280;15940;48.734;9.112;2023-04-29T04:50:47;96287.28;;;9.88;99.75
9525;BME280;15940;48.734;9.112;2023-04-29T04:53:14;96288.25;;;9.90;99.60
9525;BME280;15940;48.734;9.112;2023-04-29T04:55:42;96289.25;;;9.93;99.68
9525;BME280;15940;48.734;9.112;2023-04-29T04:58:08;96296.41;;;9.96;99.79
9525;BME280;15940;48.734;9.112;2023-04-29T05:00:35;96294.19;;;10.00;99.68
9525;BME280;15940;48.734;9.112;2023-04-29T05:03:03;96296.66;;;10.03;99.42
9525;BME280;15940;48.734;9.112;2023-04-29T05:05:32;96302.56;;;10.08;99.41
9525;BME280;15940;48.734;9.112;2023-04-29T05:08:00;96301.34;;;10.09;99.26
9525;BME280;15940;48.734;9.112;2023-04-29T05:10:27;96305.78;;;10.12;99.48
9525;BME280;15940;48.734;9.112;2023-04-29T05:12:54;96311.69;;;10.16;99.58
9525;BME280;15940;48.734;9.112;2023-04-29T05:15:22;96312.47;;;10.22;99.42
9525;BME280;15940;48.734;9.112;2023-04-29T05:17:48;96313.22;;;10.28;99.47
9525;BME280;15940;48.734;9.112;2023-04-29T05:20:15;96322.84;;;10.35;99.55
9525;BME280;15940;48.734;9.112;2023-04-29T05:22:42;96330.00;;;10.43;99.46
9525;BME280;15940;48.734;9.112;2023-04-29T05:25:11;96327.53;;;10.45;99.32
9525;BME280;15940;48.734;9.112;2023-04-29T05:27:38;96328.50;;;10.48;99.18
9525;BME280;15940;48.734;9.112;2023-04-29T05:30:06;96334.41;;;10.57;99.20
9525;BME280;15940;48.734;9.112;2023-04-29T05:32:33;96339.34;;;10.70;98.62
9525;BME280;15940;48.734;9.112;2023-04-29T05:35:00;96341.59;;;10.83;98.84
9525;BME280;15940;48.734;9.112;2023-04-29T05:37:27;96338.38;;;11.01;98.68
9525;BME280;15940;48.734;9.112;2023-04-29T05:39:56;96349.69;;;11.05;97.52
9525;BME280;15940;48.734;9.112;2023-04-29T05:42:25;96344.50;;;11.07;97.42
9525;BME280;15940;48.734;9.112;2023-04-29T05:44:52;96345.75;;;11.12;97.26
9525;BME280;15940;48.734;9.112;2023-04-29T05:47:19;96348.22;;;11.21;96.74
9525;BME280;15940;48.734;9.112;2023-04-29T05:49:46;96353.09;;;11.34;96.69
9525;BME280;15940;48.734;9.112;2023-04-29T05:52:13;96360.47;;;11.44;95.37
9525;BME280;15940;48.734;9.112;2023-04-29T05:54:40;96368.38;;;11.42;94.94
9525;BME280;15940;48.734;9.112;2023-04-29T05:57:07;96372.28;;;11.53;94.58
9525;BME280;15940;48.734;9.112;2023-04-29T05:59:35;96374.28;;;11.58;93.33
9525;BME280;15940;48.734;9.112;2023-04-29T06:02:02;96377.97;;;11.60;93.40
9525;BME280;15940;48.734;9.112;2023-04-29T06:04:29;96378.94;;;11.63;93.46
9525;BME280;15940;48.734;9.112;2023-04-29T06:06:56;96378.41;;;11.76;93.52
9525;BME280;15940;48.734;9.112;2023-04-29T06:09:23;96383.31;;;11.88;93.79
9525;BME280;15940;48.734;9.112;2023-04-29T06:11:51;96381.34;;;11.89;92.53
9525;BME280;15940;48.734;9.112;2023-04-29T06:14:18;96387.97;;;11.93;92.89
9525;BME280;15940;48.734;9.112;2023-04-29T06:16:46;96397.13;;;11.90;92.69
9525;BME280;15940;48.734;9.112;2023-04-29T06:19:14;96396.41;;;11.90;92.89
9525;BME280;15940;48.734;9.112;2023-04-29T06:21:41;96400.34;;;11.83;92.39
9525;BME280;15940;48.734;9.112;2023-04-29T06:24:08;96404.06;;;11.80;92.23
9525;BME280;15940;48.734;9.112;2023-04-29T06:26:34;96402.34;;;11.83;92.41
9525;BME280;15940;48.734;9.112;2023-04-29T06:29:01;96409.75;;;11.77;91.61
9525;BME280;15940;48.734;9.112;2023-04-29T06:31:28;96419.84;;;11.76;91.82
9525;BME280;15940;48.734;9.112;2023-04-29T06:33:57;96417.84;;;11.99;92.17
9525;BME280;15940;48.734;9.112;2023-04-29T06:36:24;96414.56;;;12.17;91.77
9525;BME280;15940;48.734;9.112;2023-04-29T06:38:51;96420.97;;;12.20;89.43
9525;BME280;15940;48.734;9.112;2023-04-29T06:41:18;96433.28;;;12.26;89.78
9525;BME280;15940;48.734;9.112;2023-04-29T06:43:45;96428.88;;;12.23;89.25
9525;BME280;15940;48.734;9.112;2023-04-29T06:46:12;96435.53;;;12.22;89.06
9525;BME280;15940;48.734;9.112;2023-04-29T06:48:39;96440.75;;;12.15;88.91
9525;BME280;15940;48.734;9.112;2023-04-29T06:51:07;96437.06;;;12.07;88.83
9525;BME280;15940;48.734;9.112;2023-04-29T06:53:34;96442.50;;;12.07;89.16
9525;BME280;15940;48.734;9.112;2023-04-29T06:56:01;96446.19;;;12.09;88.85
9525;BME280;15940;48.734;9.112;2023-04-29T06:58:28;96448.13;;;12.20;89.34
9525;BME280;15940;48.734;9.112;2023-04-29T07:00:55;96449.78;;;12.34;89.28
9525;BME280;15940;48.734;9.112;2023-04-29T07:03:22;96453.03;;;12.27;87.24
9525;BME280;15940;48.734;9.112;2023-04-29T07:05:50;96450.59;;;12.23;87.28
9525;BME280;15940;48.734;9.112;2023-04-29T07:08:18;96451.78;;;12.28;87.07
9525;BME280;15940;48.734;9.112;2023-04-29T07:10:53;96455.50;;;12.25;86.68
9525;BME280;15940;48.734;9.112;2023-04-29T07:13:21;96459.69;;;12.26;85.41
9525;BME280;15940;48.734;9.112;2023-04-29T07:15:48;96461.41;;;12.29;87.42
9525;BME280;15940;48.734;9.112;2023-04-29T07:18:15;96463.09;;;12.43;87.05
9525;BME280;15940;48.734;9.112;2023-04-29T07:20:42;96464.78;;;12.52;86.40
9525;BME280;15940;48.734;9.112;2023-04-29T07:23:09;96465.59;;;12.82;86.20
9525;BME280;15940;48.734;9.112;2023-04-29T07:25:37;96475.66;;;13.64;84.99
9525;BME280;15940;48.734;9.112;2023-04-29T07:28:05;96469.94;;;14.17;82.46
9525;BME280;15940;48.734;9.112;2023-04-29T07:30:33;96473.88;;;14.21;79.98
9525;BME280;15940;48.734;9.112;2023-04-29T07:33:00;96469.91;;;13.98;79.60
9525;BME280;15940;48.734;9.112;2023-04-29T07:35:27;96467.03;;;13.60;77.84
9525;BME280;15940;48.734;9.112;2023-04-29T07:37:54;96470.19;;;13.40;79.15
9525;BME280;15940;48.734;9.112;2023-04-29T07:40:22;96471.00;;;13.29;79.89
9525;BME280;15940;48.734;9.112;2023-04-29T07:42:50;96464.34;;;13.25;80.86
9525;BME280;15940;48.734;9.112;2023-04-29T07:45:17;96476.44;;;13.29;82.02
9525;BME280;15940;48.734;9.112;2023-04-29T07:47:44;96478.88;;;13.33;79.76
9525;BME280;15940;48.734;9.112;2023-04-29T07:50:12;96474.38;;;13.41;80.23
9525;BME280;15940;48.734;9.112;2023-04-29T07:52:39;96480.69;;;13.55;81.31
9525;BME280;15940;48.734;9.112;2023-04-29T07:55:07;96484.44;;;13.52;77.67
9525;BME280;15940;48.734;9.112;2023-04-29T07:57:34;96483.59;;;13.62;79.58
9525;BME280;15940;48.734;9.112;2023-04-29T08:00:03;96486.97;;;13.74;77.86
9525;BME280;15940;48.734;9.112;2023-04-29T08:02:31;96471.31;;;13.80;78.42
9525;BME280;15940;48.734;9.112;2023-04-29T08:04:58;96476.41;;;13.89;78.24
9525;BME280;15940;48.734;9.112;2023-04-29T08:07:25;96486.75;;;13.96;78.98
9525;BME280;15940;48.734;9.112;2023-04-29T08:09:52;96491.16;;;13.99;77.68
9525;BME280;15940;48.734;9.112;2023-04-29T08:12:19;96489.44;;;13.72;74.94
9525;BME280;15940;48.734;9.112;2023-04-29T08:14:46;96485.88;;;13.83;75.53
9525;BME280;15940;48.734;9.112;2023-04-29T08:17:14;96493.09;;;13.80;74.83
9525;BME280;15940;48.734;9.112;2023-04-29T08:19:41;96490.94;;;13.97;76.89
9525;BME280;15940;48.734;9.112;2023-04-29T08:22:08;96491.34;;;14.07;75.99
9525;BME280;15940;48.734;9.112;2023-04-29T08:24:35;96492.78;;;14.14;75.06
9525;BME280;15940;48.734;9.112;2023-04-29T08:27:02;96488.97;;;14.22;73.01
9525;BME280;15940;48.734;9.112;2023-04-29T08:29:30;96497.44;;;14.38;74.61
9525;BME280;15940;48.734;9.112;2023-04-29T08:31:58;96507.16;;;14.33;74.45
9525;BME280;15940;48.734;9.112;2023-04-29T08:34:27;96494.84;;;14.26;72.74
9525;BME280;15940;48.734;9.112;2023-04-29T08:36:55;96505.00;;;14.26;74.00
9525;BME280;15940;48.734;9.112;2023-04-29T08:39:23;96504.06;;;14.23;74.50
9525;BME280;15940;48.734;9.112;2023-04-29T08:41:50;96495.66;;;14.21;75.06
9525;BME280;15940;48.734;9.112;2023-04-29T08:44:18;96502.94;;;14.13;75.23
9525;BME280;15940;48.734;9.112;2023-04-29T08:46:46;96498.34;;;14.03;74.87
9525;BME280;15940;48.734;9.112;2023-04-29T08:49:13;96499.63;;;13.96;74.81
9525;BME280;15940;48.734;9.112;2023-04-29T08:51:42;96501.78;;;14.03;75.40
9525;BME280;15940;48.734;9.112;2023-04-29T08:54:10;96507.84;;;14.15;75.69
9525;BME280;15940;48.734;9.112;2023-04-29T08:56:38;96509.44;;;14.29;75.88
9525;BME280;15940;48.734;9.112;2023-04-29T08:59:08;96499.25;;;14.29;74.98
9525;BME280;15940;48.734;9.112;2023-04-29T09:01:37;96504.56;;;14.22;75.75
9525;BME280;15940;48.734;9.112;2023-04-29T09:04:11;96508.03;;;14.22;76.30
9525;BME280;15940;48.734;9.112;2023-04-29T09:06:42;96509.78;;;13.95;75.45
9525;BME280;15940;48.734;9.112;2023-04-29T09:09:10;96510.06;;;13.92;77.36
9525;BME280;15940;48.734;9.112;2023-04-29T09:11:39;96508.09;;;13.62;76.82
9525;BME280;15940;48.734;9.112;2023-04-29T09:14:06;96504.03;;;13.75;77.80
9525;BME280;15940;48.734;9.112;2023-04-29T09:16:34;96508.66;;;13.85;78.42
9525;BME280;15940;48.734;9.112;2023-04-29T09:19:03;96510.41;;;14.07;78.66
9525;BME280;15940;48.734;9.112;2023-04-29T09:21:30;96516.47;;;14.43;77.47
9525;BME280;15940;48.734;9.112;2023-04-29T09:24:00;96518.75;;;14.82;76.99
9525;BME280;15940;48.734;9.112;2023-04-29T09:26:39;96521.31;;;14.94;72.58
9525;BME280;15940;48.734;9.112;2023-04-29T09:29:08;96518.59;;;14.94;74.58
9525;BME280;15940;48.734;9.112;2023-04-29T09:31:37;96515.34;;;14.95;74.69
9525;BME280;15940;48.734;9.112;2023-04-29T09:34:05;96525.38;;;14.87;73.65
9525;BME280;15940;48.734;9.112;2023-04-29T09:36:41;96523.63;;;14.46;74.90
9525;BME280;15940;48.734;9.112;2023-04-29T09:39:13;96524.16;;;14.45;74.66
9525;BME280;15940;48.734;9.112;2023-04-29T09:41:56;96525.16;;;14.42;73.89
9525;BME280;15940;48.734;9.112;2023-04-29T09:44:26;96525.38;;;14.44;73.60
9525;BME280;15940;48.734;9.112;2023-04-29T09:46:55;96533.16;;;14.58;74.08
9525;BME280;15940;48.734;9.112;2023-04-29T09:49:24;96525.88;;;14.85;74.01
9525;BME280;15940;48.734;9.112;2023-04-29T09:51:54;96530.09;;;15.05;72.14
9525;BME280;15940;48.734;9.112;2023-04-29T09:54:23;96529.41;;;15.37;71.89
9525;BME280;15940;48.734;9.112;2023-04-29T09:56:51;96532.28;;;15.45;71.57
9525;BME280;15940;48.734;9.112;2023-04-29T09:59:19;96528.97;;;15.14;71.72
9525;BME280;15940;48.734;9.112;2023-04-29T10:01:51;96527.72;;;15.15;72.88
9525;BME280;15940;48.734;9.112;2023-04-29T10:04:21;96534.38;;;15.20;72.56
9525;BME280;15940;48.734;9.112;2023-04-29T10:06:51;96534.13;;;15.36;72.58
9525;BME280;15940;48.734;9.112;2023-04-29T10:09:19;96533.22;;;15.47;70.44
9525;BME280;15940;48.734;9.112;2023-04-29T10:11:49;96531.81;;;16.18;70.18
9525;BME280;15940;48.734;9.112;2023-04-29T10:14:18;96530.50;;;16.77;68.10
9525;BME280;15940;48.734;9.112;2023-04-29T10:16:47;96527.84;;;17.19;63.53
9525;BME280;15940;48.734;9.112;2023-04-29T10:19:21;96524.47;;;17.47;64.22
9525;BME280;15940;48.734;9.112;2023-04-29T10:21:53;96524.19;;;17.17;62.22
9525;BME280;15940;48.734;9.112;2023-04-29T10:24:21;96532.56;;;16.58;64.45
9525;BME280;15940;48.734;9.112;2023-04-29T10:26:50;96519.75;;;16.40;64.02
9525;BME280;15940;48.734;9.112;2023-04-29T10:29:21;96523.41;;;16.16;68.83
9525;BME280;15940;48.734;9.112;2023-04-29T10:31:49;96520.78;;;16.63;68.10
9525;BME280;15940;48.734;9.112;2023-04-29T10:34:17;96519.97;;;17.16;64.94
9525;BME280;15940;48.734;9.112;2023-04-29T10:36:45;96519.50;;;17.80;61.72
9525;BME280;15940;48.734;9.112;2023-04-29T10:39:34;96506.13;;;17.76;58.35
9525;BME280;15940;48.734;9.112;2023-04-29T10:42:04;96515.13;;;18.34;61.24
9525;BME280;15940;48.734;9.112;2023-04-29T10:45:22;96504.22;;;18.77;56.65
9525;BME280;15940;48.734;9.112;2023-04-29T10:48:12;96501.56;;;19.08;57.93
9525;BME280;15940;48.734;9.112;2023-04-29T10:51:02;96510.44;;;19.37;58.71
9525;BME280;15940;48.734;9.112;2023-04-29T10:53:29;96504.81;;;18.91;54.54
9525;BME280;15940;48.734;9.112;2023-04-29T10:56:02;96507.94;;;17.74;55.30
9525;BME280;15940;48.734;9.112;2023-04-29T10:58:37;96509.78;;;17.03;58.23
9525;BME280;15940;48.734;9.112;2023-04-29T11:01:05;96500.06;;;16.68;62.43
9525;BME280;15940;48.734;9.112;2023-04-29T11:03:53;96499.59;;;17.24;62.92
9525;BME280;15940;48.734;9.112;2023-04-29T11:06:24;96509.97;;;17.39;60.06
9525;BME280;15940;48.734;9.112;2023-04-29T11:09:03;96502.16;;;16.75;60.89
9525;BME280;15940;48.734;9.112;2023-04-29T11:11:44;96508.41;;;16.36;61.17
9525;BME280;15940;48.734;9.112;2023-04-29T11:14:14;96508.41;;;16.22;62.75
9525;BME280;15940;48.734;9.112;2023-04-29T11:16:50;96514.50;;;16.02;62.19
9525;BME280;15940;48.734;9.112;2023-04-29T11:19:18;96515.34;;;16.23;63.46
9525;BME280;15940;48.734;9.112;2023-04-29T11:21:46;96507.22;;;16.57;62.50
9525;BME280;15940;48.734;9.112;2023-04-29T11:24:13;96506.38;;;16.63;59.57
9525;BME280;15940;48.734;9.112;2023-04-29T11:26:43;96503.97;;;16.72;61.34
9525;BME280;15940;48.734;9.112;2023-04-29T11:29:11;96514.38;;;16.61;61.36
9525;BME280;15940;48.734;9.112;2023-04-29T11:31:39;96506.59;;;16.78;58.89
9525;BME280;15940;48.734;9.112;2023-04-29T11:34:06;96500.38;;;16.64;60.92
9525;BME280;15940;48.734;9.112;2023-04-29T11:36:34;96498.50;;;16.59;57.68
9525;BME280;15940;48.734;9.112;2023-04-29T11:39:02;96494.19;;;16.37;60.46
9525;BME280;15940;48.734;9.112;2023-04-29T11:41:30;96499.78;;;16.32;59.39
9525;BME280;15940;48.734;9.112;2023-04-29T11:43:58;96501.66;;;16.37;62.11
9525;BME280;15940;48.734;9.112;2023-04-29T11:46:29;96503.03;;;16.70;61.27
9525;BME280;15940;48.734;9.112;2023-04-29T11:48:57;96495.81;;;17.27;59.71
9525;BME280;15940;48.734;9.112;2023-04-29T11:51:25;96501.22;;;17.61;58.59
9525;BME280;15940;48.734;9.112;2023-04-29T11:53:53;96497.50;;;17.51;55.05
9525;BME280;15940;48.734;9.112;2023-04-29T11:56:21;96501.03;;;17.59;55.60
9525;BME280;15940;48.734;9.112;2023-04-29T11:58:52;96498.56;;;17.90;58.04
9525;BME280;15940;48.734;9.112;2023-04-29T12:01:21;96496.91;;;18.15;55.54
9525;BME280;15940;48.734;9.112;2023-04-29T12:03:48;96495.81;;;18.47;53.88
9525;BME280;15940;48.734;9.112;2023-04-29T12:06:17;96497.84;;;18.54;56.00
9525;BME280;15940;48.734;9.112;2023-04-29T12:08:46;96499.06;;;18.74;55.48
9525;BME280;15940;48.734;9.112;2023-04-29T12:11:13;96502.50;;;18.31;55.59
9525;BME280;15940;48.734;9.112;2023-04-29T12:13:40;96498.53;;;18.11;58.91
9525;BME280;15940;48.734;9.112;2023-04-29T12:16:08;96501.06;;;18.09;60.10
9525;BME280;15940;48.734;9.112;2023-04-29T12:18:35;96509.59;;;17.77;60.02
9525;BME280;15940;48.734;9.112;2023-04-29T12:21:04;96508.50;;;17.59;60.87
9525;BME280;15940;48.734;9.112;2023-04-29T12:23:35;96503.09;;;17.25;57.94
9525;BME280;15940;48.734;9.112;2023-04-29T12:26:02;96521.59;;;17.32;62.00
9525;BME280;15940;48.734;9.112;2023-04-29T12:28:29;96515.09;;;17.22;61.73
9525;BME280;15940;48.734;9.112;2023-04-29T12:30:58;96517.91;;;16.95;62.97
9525;BME280;15940;48.734;9.112;2023-04-29T12:33:28;96519.25;;;17.02;63.25
9525;BME280;15940;48.734;9.112;2023-04-29T12:35:57;96529.19;;;16.65;62.52
9525;BME280;15940;48.734;9.112;2023-04-29T12:38:26;96522.19;;;16.70;65.77
9525;BME280;15940;48.734;9.112;2023-04-29T12:40:57;96526.44;;;16.92;66.47
9525;BME280;15940;48.734;9.112;2023-04-29T12:43:26;96518.19;;;17.05;61.44
9525;BME280;15940;48.734;9.112;2023-04-29T12:45:53;96520.72;;;17.16;62.02
9525;BME280;15940;48.734;9.112;2023-04-29T12:48:21;96530.41;;;17.38;60.70
9525;BME280;15940;48.734;9.112;2023-04-29T12:50:55;96529.41;;;17.49;63.26
9525;BME280;15940;48.734;9.112;2023-04-29T12:53:23;96532.34;;;17.30;62.58
9525;BME280;15940;48.734;9.112;2023-04-29T12:55:50;96533.78;;;17.10;63.25
9525;BME280;15940;48.734;9.112;2023-04-29T12:58:19;96523.88;;;17.41;63.95
9525;BME280;15940;48.734;9.112;2023-04-29T13:00:46;96526.41;;;17.60;63.26
9525;BME280;15940;48.734;9.112;2023-04-29T13:05:44;96533.44;;;17.13;64.00
9525;BME280;15940;48.734;9.112;2023-04-29T13:08:13;96528.84;;;16.95;61.15
9525;BME280;15940;48.734;9.112;2023-04-29T13:10:40;96530.06;;;17.41;60.30
9525;BME280;15940;48.734;9.112;2023-04-29T13:13:07;96531.03;;;17.44;58.87
9525;BME280;15940;48.734;9.112;2023-04-29T13:15:35;96528.88;;;17.50;60.72
9525;BME280;15940;48.734;9.112;2023-04-29T13:18:03;96534.16;;;17.48;57.31
9525;BME280;15940;48.734;9.112;2023-04-29T13:20:31;96540.81;;;17.05;62.77
9525;BME280;15940;48.734;9.112;2023-04-29T13:22:59;96537.81;;;17.30;62.70
9525;BME280;15940;48.734;9.112;2023-04-29T13:25:26;96538.31;;;17.07;60.43
9525;BME280;15940;48.734;9.112;2023-04-29T13:27:53;96538.66;;;16.64;63.07